M I D A S
Marine Information and Data Acquisition System
Tripno 1674 of the Zeeleeuw from 2009-04-09 07:16:14 to 2009-04-09 14:23:04
Back to CruiseResearch ActivitiesStationsMapUnderway DataData graphs

EquipmentUnitsComment
TimeDGPSUTC
LatitudeDGPSDM.mWGS84
LongitudeDGPSDM.mWGS84
TemperatureSBE03/SBE38deg celciusITS90
ConductivitySBE21S/mITS90
SalinitySBE21 Practical Salinity Units
ChlorophylAChelsea fluorimeterg/lCalibrated in Aceton
Missing or incorrect values are displayed as -999
Sea surface data collected by the RV Zeeleeuw from 2009-04-09 07:33:28 to 2009-04-09 14:35:49
Time Latitude Longitude Temperature Conductivity Salinity ChlorophylA
2009-04-09 07:34:37 51°13.68 2°55.9 -999 1.861184 13.483915 -0.373735
2009-04-09 07:35:37 51°13.692 2°55.81 -999 1.861081 13.483923 -0.338911
2009-04-09 07:36:36 51°13.691 2°55.743 -999 1.861494 13.488277 -0.373735
2009-04-09 07:37:34 51°13.708 2°55.745 -999 1.86232 13.49644 -0.373735
2009-04-09 07:38:34 51°13.762 2°55.708 -999 1.861907 13.492906 -0.373735
2009-04-09 07:39:34 51°13.865 2°55.612 -999 1.860978 13.485847 -0.373735
2009-04-09 07:40:33 51°13.998 2°55.506 -999 1.860978 13.486669 -0.373735
2009-04-09 07:41:34 51°14.146 2°55.389 -999 1.860668 13.485047 -0.373735
2009-04-09 07:42:35 51°14.277 2°55.23 -999 1.860668 13.485595 -0.373735
2009-04-09 07:43:33 51°14.393 2°55.042 -999 1.860358 13.483424 -0.373735
2009-04-09 07:44:34 51°14.528 2°54.808 -999 1.858913 13.472017 -0.373735
2009-04-09 07:45:34 51°14.659 2°54.561 -999 1.859016 13.473653 -0.373735
2009-04-09 07:46:34 51°14.774 2°54.293 -999 1.860255 13.485076 -0.373735
2009-04-09 07:47:33 51°14.827 2°53.979 -999 1.858913 13.473933 -0.373735
2009-04-09 07:48:33 51°14.868 2°53.651 -999 1.858087 13.468235 -0.373735
2009-04-09 07:49:34 51°14.937 2°53.332 -999 1.857777 13.466612 -0.373735
2009-04-09 07:50:33 51°15.015 2°53.032 -999 1.857364 13.463899 -0.408559
2009-04-09 07:51:33 51°15.098 2°52.73 -999 1.856951 13.462008 -0.373735
2009-04-09 07:52:33 51°15.185 2°52.429 -999 1.857157 13.464459 -0.373735
2009-04-09 07:53:34 51°15.277 2°52.123 -999 1.856951 13.46365 -0.373735
2009-04-09 07:54:33 51°15.36 2°51.818 -999 1.856848 13.46393 -0.373735
2009-04-09 07:55:33 51°15.444 2°51.511 -999 1.856848 13.4653 -0.373735
2009-04-09 07:56:33 51°15.528 2°51.202 -999 1.857467 13.471561 -0.373735
2009-04-09 07:57:34 51°15.611 2°50.885 -999 1.858293 13.478907 -0.373735
2009-04-09 07:58:33 51°15.641 2°50.556 -999 1.857158 13.469663 -0.373735
2009-04-09 07:59:33 51°15.658 2°50.218 -999 1.855919 13.461522 -0.373735
2009-04-09 08:00:33 51°15.676 2°49.88 -999 1.855609 13.459623 -0.373735
2009-04-09 08:01:33 51°15.694 2°49.546 -999 1.855299 13.45882 -0.373735
2009-04-09 08:02:33 51°15.711 2°49.213 -999 1.855815 13.46372 -0.373735
2009-04-09 08:03:33 51°15.727 2°48.88 -999 1.855402 13.461553 -0.373735
2009-04-09 08:04:34 51°15.743 2°48.538 -999 1.855506 13.463465 -0.373735
2009-04-09 08:05:32 51°15.758 2°48.21 -999 1.85499 13.459934 -0.373735
2009-04-09 08:06:33 51°15.773 2°47.861 -999 1.85499 13.46103 -0.373735
2009-04-09 08:07:33 51°15.789 2°47.517 -999 1.854783 13.461043 -0.373735
2009-04-09 08:08:33 51°15.798 2°47.172 -999 1.85437 13.458327 -0.373735
2009-04-09 08:09:34 51°15.816 2°46.823 -999 1.854164 13.457517 -0.373735
2009-04-09 08:10:33 51°15.835 2°46.488 -999 1.85406 13.457797 -0.373735
2009-04-09 08:11:33 51°15.855 2°46.147 -999 1.854267 13.4608 -0.373735
2009-04-09 08:12:33 51°15.874 2°45.811 -999 1.854164 13.460807 -0.373735
2009-04-09 08:13:33 51°15.893 2°45.477 -999 1.854164 13.462178 -0.408559
2009-04-09 08:14:33 51°15.906 2°45.144 -999 1.853957 13.461642 -0.373735
2009-04-09 08:15:33 51°15.917 2°44.811 -999 1.853751 13.461107 -0.373735
2009-04-09 08:16:33 51°15.939 2°44.481 -999 1.854783 13.470094 -0.373735
2009-04-09 08:17:33 51°16.039 2°44.212 -999 1.857364 13.492707 -0.373735
2009-04-09 08:18:34 51°16.182 2°44 -999 1.856538 13.486723 -0.373735
2009-04-09 08:19:33 51°16.325 2°43.8 -999 1.856126 13.484281 -0.373735
2009-04-09 08:20:33 51°16.473 2°43.598 -999 1.856229 13.485922 -0.373735
2009-04-09 08:21:33 51°16.618 2°43.391 -999 1.856126 13.48538 -0.373735
2009-04-09 08:22:34 51°16.762 2°43.168 -999 1.857158 13.494374 -0.373735
2009-04-09 08:23:33 51°16.884 2°42.917 -999 1.856848 13.492473 -0.408559
2009-04-09 08:24:33 51°16.989 2°42.634 -999 1.856435 13.490031 -0.373735
2009-04-09 08:25:34 51°17.081 2°42.326 -999 1.857881 13.50257 -0.373735
2009-04-09 08:26:33 51°17.14 2°42.003 -999 1.854474 13.475883 -0.373735
2009-04-09 08:27:33 51°17.175 2°41.659 -999 1.855713 13.487062 -0.373735
2009-04-09 08:28:33 51°17.192 2°41.306 -999 1.85468 13.479441 -0.373735
2009-04-09 08:29:34 51°17.211 2°40.945 -999 1.853957 13.474821 -0.373735
2009-04-09 08:30:33 51°17.226 2°40.594 -999 1.853957 13.475646 -0.408559
2009-04-09 08:31:33 51°17.244 2°40.236 -999 1.853441 13.472934 -0.408559
2009-04-09 08:32:34 51°17.265 2°39.874 -999 1.853545 13.475126 -0.373735
2009-04-09 08:33:34 51°17.286 2°39.519 -999 1.853132 13.472957 -0.408559
2009-04-09 08:34:34 51°17.301 2°39.167 -999 1.853648 13.478419 -0.408559
2009-04-09 08:35:33 51°17.32 2°38.817 -999 1.853441 13.477059 -0.408559
2009-04-09 08:36:33 51°17.337 2°38.458 -999 1.853028 13.475164 -0.373735
2009-04-09 08:37:33 51°17.356 2°38.097 -999 1.852512 13.472177 -0.373735
2009-04-09 08:38:34 51°17.376 2°37.733 -999 1.852615 13.473819 -0.408559
2009-04-09 08:39:33 51°17.394 2°37.383 -999 1.852719 13.476013 -0.408559
2009-04-09 08:40:33 51°17.409 2°37.026 -999 1.852512 13.475478 -0.408559
2009-04-09 08:41:33 51°17.411 2°36.664 -999 1.852409 13.475761 -0.408559
2009-04-09 08:42:33 51°17.407 2°36.301 -999 1.851893 13.472497 -0.408559
2009-04-09 08:43:34 51°17.411 2°35.937 -999 1.852409 13.477687 -0.408559
2009-04-09 08:44:33 51°17.426 2°35.591 -999 1.851996 13.475792 -0.408559
2009-04-09 08:45:33 51°17.449 2°35.247 -999 1.852822 13.483438 -0.408559
2009-04-09 08:46:33 51°17.483 2°34.91 -999 1.852512 13.481259 -0.408559
2009-04-09 08:47:34 51°17.524 2°34.567 -999 1.852099 13.479914 -0.373735
2009-04-09 08:48:33 51°17.518 2°34.231 -999 1.852616 13.484832 -0.408559
2009-04-09 08:49:33 51°17.401 2°33.949 -999 1.850138 13.463819 -0.408559
2009-04-09 08:50:34 51°17.226 2°33.738 -999 1.848382 13.450187 -0.408559
2009-04-09 08:51:34 51°17.061 2°33.508 -999 1.848796 13.455658 -0.373735
2009-04-09 08:52:34 51°16.914 2°33.251 -999 1.849209 13.460307 -0.408559
2009-04-09 08:53:33 51°16.774 2°32.993 -999 1.848796 13.458134 -0.408559
2009-04-09 08:54:33 51°16.631 2°32.731 -999 1.849105 13.46169 -0.408559
2009-04-09 08:55:33 51°16.49 2°32.467 -999 1.848899 13.461154 -0.408559
2009-04-09 08:56:33 51°16.349 2°32.202 -999 1.848486 13.45843 -0.408559
2009-04-09 08:57:33 51°16.205 2°31.941 -999 1.848589 13.4609 -0.408559
2009-04-09 08:58:33 51°16.062 2°31.675 -999 1.84797 13.456814 -0.408559
2009-04-09 08:59:33 51°15.92 2°31.408 -999 1.847866 13.457097 -0.408559
2009-04-09 09:00:33 51°15.779 2°31.138 -999 1.84797 13.458741 -0.408559
2009-04-09 09:01:33 51°15.633 2°30.876 -999 1.848796 13.467219 -0.408559
2009-04-09 09:02:34 51°15.448 2°30.687 -999 1.848073 13.460936 -0.408559
2009-04-09 09:03:33 51°15.255 2°30.534 -999 1.847454 13.456574 -0.408559
2009-04-09 09:04:33 51°15.06 2°30.38 -999 1.847247 13.455212 -0.408559
2009-04-09 09:05:33 51°14.867 2°30.216 -999 1.847144 13.455494 -0.408559
2009-04-09 09:06:33 51°14.676 2°30.056 -999 1.84766 13.46014 -0.408559
2009-04-09 09:07:34 51°14.484 2°29.895 -999 1.846937 13.454682 -0.408559
2009-04-09 09:08:33 51°14.329 2°29.787 -999 1.851583 13.495405 -0.408559
2009-04-09 09:09:34 51°14.266 2°29.86 -999 1.852513 13.503333 -0.408559
2009-04-09 09:10:34 51°14.287 2°29.983 -999 1.850344 13.483917 -0.408559
2009-04-09 09:11:34 51°14.329 2°30.101 -999 1.850138 13.482279 -0.408559
2009-04-09 09:12:34 51°14.375 2°30.171 -999 1.849415 13.477648 -0.408559
2009-04-09 09:13:33 51°14.42 2°30.212 -999 1.850345 13.486401 -0.408559
2009-04-09 09:14:34 51°14.465 2°30.248 -999 1.850448 13.486668 -0.408559
2009-04-09 09:15:34 51°14.489 2°30.273 -999 1.849622 13.479838 -0.408559
2009-04-09 09:16:34 51°14.492 2°30.28 -999 1.849932 13.4834 -0.408559
2009-04-09 09:17:33 51°14.493 2°30.287 -999 1.850138 13.485039 -0.408559
2009-04-09 09:18:33 51°14.487 2°30.274 -999 1.849209 13.477664 -0.408559
2009-04-09 09:19:37 51°14.456 2°30.206 -999 1.850345 13.487782 -0.408559
2009-04-09 09:20:37 51°14.418 2°30.16 -999 1.850241 13.486686 -0.443383
2009-04-09 09:21:36 51°14.448 2°30.161 -999 1.851377 13.496253 -0.443383
2009-04-09 09:22:34 51°14.545 2°30.155 -999 1.849932 13.484504 -0.408559
2009-04-09 09:23:34 51°14.655 2°30.152 -999 1.849828 13.483409 -0.408559
2009-04-09 09:24:33 51°14.743 2°30.178 -999 1.850138 13.486143 -0.443383
2009-04-09 09:25:34 51°14.813 2°30.235 -999 1.849725 13.482865 -0.443383
2009-04-09 09:26:34 51°14.866 2°30.314 -999 1.850345 13.488058 -0.443383
2009-04-09 09:27:34 51°14.92 2°30.391 -999 1.850448 13.489154 -0.408559
2009-04-09 09:28:33 51°14.977 2°30.455 -999 1.85148 13.498731 -0.443383
2009-04-09 09:29:34 51°15.024 2°30.427 -999 1.852926 13.510483 -0.443383
2009-04-09 09:30:34 51°15.023 2°30.347 -999 1.852513 13.507481 -0.443383
2009-04-09 09:31:33 51°14.98 2°30.299 -999 1.852616 13.508577 -0.443383
2009-04-09 09:32:33 51°14.907 2°30.297 -999 1.850964 13.494633 -0.443383
2009-04-09 09:33:33 51°14.834 2°30.284 -999 1.851171 13.497378 -0.443383
2009-04-09 09:34:34 51°14.769 2°30.245 -999 1.850964 13.496291 -0.443383
2009-04-09 09:35:33 51°14.714 2°30.189 -999 1.851377 13.499846 -0.443383
2009-04-09 09:36:34 51°14.657 2°30.132 -999 1.851377 13.500399 -0.443383
2009-04-09 09:37:33 51°14.598 2°30.09 -999 1.851274 13.500133 -0.443383
2009-04-09 09:38:34 51°14.535 2°30.053 -999 1.85148 13.502325 -0.443383
2009-04-09 09:39:33 51°14.477 2°30.011 -999 1.851171 13.500142 -0.443383
2009-04-09 09:40:33 51°14.419 2°29.963 -999 1.851171 13.500419 -0.443383
2009-04-09 09:41:33 51°14.361 2°29.921 -999 1.851171 13.500972 -0.443383
2009-04-09 09:42:33 51°14.3 2°29.884 -999 1.850964 13.499609 -0.443383
2009-04-09 09:43:34 51°14.24 2°29.842 -999 1.850964 13.500162 -0.443383
2009-04-09 09:44:33 51°14.185 2°29.791 -999 1.85179 13.506998 -0.443383
2009-04-09 09:45:34 51°14.124 2°29.744 -999 1.851274 13.502898 -0.443383
2009-04-09 09:46:34 51°14.065 2°29.7 -999 1.8521 13.510289 -0.443383
2009-04-09 09:47:34 51°14.01 2°29.646 -999 1.851377 13.505102 -0.478207
2009-04-09 09:48:34 51°13.955 2°29.595 -999 1.851377 13.505102 -0.443383
2009-04-09 09:49:34 51°13.904 2°29.538 -999 1.851687 13.508116 -0.478207
2009-04-09 09:50:33 51°13.853 2°29.504 -999 1.852616 13.516882 -0.443383
2009-04-09 09:51:33 51°13.808 2°29.547 -999 1.853339 13.522901 -0.443383
2009-04-09 09:52:34 51°13.806 2°29.643 -999 1.853442 13.523721 -0.478207
2009-04-09 09:53:34 51°13.85 2°29.711 -999 1.853236 13.522358 -0.443383
2009-04-09 09:54:34 51°13.909 2°29.706 -999 1.852719 13.517425 -0.443383
2009-04-09 09:55:34 51°13.984 2°29.7 -999 1.851687 13.5095 -0.478207
2009-04-09 09:56:34 51°14.061 2°29.752 -999 1.85179 13.511705 -0.478207
2009-04-09 09:57:34 51°14.135 2°29.821 -999 1.85148 13.508967 -0.478207
2009-04-09 09:58:34 51°14.204 2°29.886 -999 1.8521 13.514443 -0.478207
2009-04-09 09:59:33 51°14.265 2°29.932 -999 1.8521 13.51472 -0.443383
2009-04-09 10:00:34 51°14.321 2°29.974 -999 1.8521 13.51472 -0.478207
2009-04-09 10:01:34 51°14.371 2°30.011 -999 1.851997 13.514453 -0.478207
2009-04-09 10:02:34 51°14.42 2°30.047 -999 1.85241 13.518289 -0.478207
2009-04-09 10:03:34 51°14.471 2°30.084 -999 1.852513 13.519664 -0.478207
2009-04-09 10:04:34 51°14.524 2°30.126 -999 1.8521 13.516382 -0.478207
2009-04-09 10:05:34 51°14.577 2°30.172 -999 1.852513 13.519941 -0.478207
2009-04-09 10:06:34 51°14.631 2°30.215 -999 1.852307 13.518854 -0.478207
2009-04-09 10:07:34 51°14.684 2°30.257 -999 1.852823 13.522957 -0.478207
2009-04-09 10:08:34 51°14.738 2°30.297 -999 1.852307 13.519131 -0.478207
2009-04-09 10:09:34 51°14.792 2°30.334 -999 1.852203 13.518034 -0.478207
2009-04-09 10:10:34 51°14.848 2°30.37 -999 1.852203 13.518311 -0.478207
2009-04-09 10:11:34 51°14.903 2°30.414 -999 1.852203 13.518865 -0.478207
2009-04-09 10:12:34 51°14.956 2°30.459 -999 1.852307 13.519686 -0.478207
2009-04-09 10:13:34 51°15.005 2°30.515 -999 1.852307 13.519409 -0.478207
2009-04-09 10:14:34 51°15.051 2°30.596 -999 1.852203 13.518865 -0.478207
2009-04-09 10:15:34 51°15.081 2°30.707 -999 1.852307 13.52024 -0.478207
2009-04-09 10:16:34 51°15.092 2°30.83 -999 1.853236 13.528735 -0.478207
2009-04-09 10:17:34 51°15.128 2°30.912 -999 1.854165 13.536955 -0.478207
2009-04-09 10:18:34 51°15.171 2°30.909 -999 1.854785 13.542713 -0.478207
2009-04-09 10:19:34 51°15.168 2°30.848 -999 1.853649 13.532573 -0.478207
2009-04-09 10:20:34 51°15.128 2°30.777 -999 1.853029 13.526817 -0.478207
2009-04-09 10:21:34 51°15.079 2°30.694 -999 1.853029 13.527649 -0.478207
2009-04-09 10:22:34 51°15.026 2°30.614 -999 1.852823 13.526285 -0.478207
2009-04-09 10:23:34 51°14.968 2°30.538 -999 1.853236 13.5304 -0.478207
2009-04-09 10:24:34 51°14.902 2°30.493 -999 1.852823 13.526562 -0.478207
2009-04-09 10:25:34 51°14.848 2°30.449 -999 1.852926 13.527938 -0.478207
2009-04-09 10:26:34 51°14.797 2°30.407 -999 1.853029 13.529036 -0.478207
2009-04-09 10:27:34 51°14.746 2°30.369 -999 1.853133 13.529857 -0.478207
2009-04-09 10:28:34 51°14.697 2°30.325 -999 1.853133 13.530412 -0.478207
2009-04-09 10:29:34 51°14.643 2°30.291 -999 1.853029 13.529591 -0.478207
2009-04-09 10:30:34 51°14.596 2°30.247 -999 1.853546 13.53425 -0.478207
2009-04-09 10:31:34 51°14.546 2°30.201 -999 1.853339 13.532331 -0.513031
2009-04-09 10:32:34 51°14.489 2°30.165 -999 1.853133 13.530967 -0.513031
2009-04-09 10:33:34 51°14.437 2°30.129 -999 1.852926 13.529603 -0.513031
2009-04-09 10:34:34 51°14.393 2°30.088 -999 1.853649 13.535904 -0.513031
2009-04-09 10:35:34 51°14.347 2°30.054 -999 1.853133 13.531522 -0.478207
2009-04-09 10:36:34 51°14.301 2°30.02 -999 1.853236 13.532898 -0.513031
2009-04-09 10:37:34 51°14.259 2°29.983 -999 1.853133 13.532355 -0.513031
2009-04-09 10:38:34 51°14.215 2°29.95 -999 1.853236 13.532898 -0.513031
2009-04-09 10:39:34 51°14.17 2°29.915 -999 1.853442 13.534818 -0.513031
2009-04-09 10:40:34 51°14.125 2°29.879 -999 1.853442 13.535095 -0.513031
2009-04-09 10:41:34 51°14.079 2°29.843 -999 1.853546 13.536194 -0.513031
2009-04-09 10:42:34 51°14.034 2°29.807 -999 1.853546 13.536194 -0.513031
2009-04-09 10:43:33 51°13.992 2°29.77 -999 1.853442 13.535651 -0.513031
2009-04-09 10:44:34 51°13.948 2°29.742 -999 1.854372 13.544152 -0.513031
2009-04-09 10:45:34 51°13.897 2°29.804 -999 1.854888 13.549092 -0.513031
2009-04-09 10:46:34 51°13.889 2°29.919 -999 1.854268 13.542497 -0.513031
2009-04-09 10:47:34 51°13.915 2°30.017 -999 1.854268 13.543053 -0.513031
2009-04-09 10:48:34 51°13.956 2°30.066 -999 1.854062 13.541966 -0.513031
2009-04-09 10:49:34 51°13.998 2°30.042 -999 1.85272 13.529904 -0.513031
2009-04-09 10:50:34 51°14.062 2°29.997 -999 1.853546 13.537861 -0.513031
2009-04-09 10:51:34 51°14.118 2°29.956 -999 1.852616 13.529638 -0.513031
2009-04-09 10:52:34 51°14.191 2°29.981 -999 1.852823 13.53239 -0.513031
2009-04-09 10:53:34 51°14.266 2°30.053 -999 1.853752 13.539503 -0.513031
2009-04-09 10:54:34 51°14.334 2°30.116 -999 1.853546 13.538694 -0.513031
2009-04-09 10:55:34 51°14.396 2°30.163 -999 1.853442 13.538151 -0.513031
2009-04-09 10:56:34 51°14.458 2°30.206 -999 1.853133 13.535687 -0.513031
2009-04-09 10:57:34 51°14.519 2°30.257 -999 1.853855 13.541713 -0.513031
2009-04-09 10:58:34 51°14.579 2°30.301 -999 1.853546 13.538972 -0.513031
2009-04-09 10:59:34 51°14.64 2°30.343 -999 1.853546 13.538972 -0.513031
2009-04-09 11:00:34 51°14.703 2°30.39 -999 1.853649 13.540071 -0.513031
2009-04-09 11:01:34 51°14.766 2°30.437 -999 1.853649 13.539515 -0.513031
2009-04-09 11:02:34 51°14.829 2°30.485 -999 1.853752 13.540336 -0.547855
2009-04-09 11:03:34 51°14.892 2°30.537 -999 1.853959 13.541979 -0.513031
2009-04-09 11:04:34 51°14.955 2°30.597 -999 1.853855 13.541158 -0.513031
2009-04-09 11:05:34 51°15.015 2°30.668 -999 1.853649 13.538682 -0.513031
2009-04-09 11:06:34 51°15.069 2°30.758 -999 1.853855 13.540324 -0.513031
2009-04-09 11:07:34 51°15.114 2°30.864 -999 1.853959 13.540867 -0.513031
2009-04-09 11:08:34 51°15.148 2°30.98 -999 1.853855 13.539768 -0.513031
2009-04-09 11:09:34 51°15.174 2°31.103 -999 1.854785 13.547992 -0.513031
2009-04-09 11:10:34 51°15.222 2°31.202 -999 1.855404 13.553198 -0.513031
2009-04-09 11:11:34 51°15.276 2°31.227 -999 1.855507 13.553741 -0.513031
2009-04-09 11:12:34 51°15.3 2°31.208 -999 1.85592 13.556748 -0.547855
2009-04-09 11:13:34 51°15.28 2°31.163 -999 1.854785 13.546047 -0.513031
2009-04-09 11:14:34 51°15.23 2°31.08 -999 1.854268 13.541941 -0.547855
2009-04-09 11:15:34 51°15.17 2°30.986 -999 1.854372 13.543318 -0.547855
2009-04-09 11:16:34 51°15.106 2°30.893 -999 1.854578 13.54496 -0.547855
2009-04-09 11:17:34 51°15.042 2°30.798 -999 1.854475 13.544139 -0.547855
2009-04-09 11:18:34 51°14.978 2°30.705 -999 1.854372 13.54304 -0.547855
2009-04-09 11:19:34 51°14.91 2°30.625 -999 1.854681 13.545781 -0.547855
2009-04-09 11:20:34 51°14.851 2°30.589 -999 1.854681 13.545781 -0.547855
2009-04-09 11:21:34 51°14.802 2°30.558 -999 1.854785 13.546603 -0.547855
2009-04-09 11:22:34 51°14.754 2°30.523 -999 1.854888 13.547702 -0.547855
2009-04-09 11:23:34 51°14.706 2°30.485 -999 1.854991 13.548245 -0.513031
2009-04-09 11:24:34 51°14.658 2°30.447 -999 1.854578 13.544682 -0.547855
2009-04-09 11:25:34 51°14.609 2°30.411 -999 1.855094 13.549344 -0.547855
2009-04-09 11:26:34 51°14.555 2°30.386 -999 1.854785 13.546047 -0.547855
2009-04-09 11:27:34 51°14.497 2°30.36 -999 1.854991 13.547689 -0.547855
2009-04-09 11:28:34 51°14.448 2°30.316 -999 1.855301 13.550152 -0.547855
2009-04-09 11:29:34 51°14.417 2°30.251 -999 1.855611 13.552338 -0.547855
2009-04-09 11:30:34 51°14.373 2°30.199 -999 1.855198 13.548775 -0.547855
2009-04-09 11:31:34 51°14.308 2°30.15 -999 1.854991 13.547133 -0.547855
2009-04-09 11:32:34 51°14.242 2°30.096 -999 1.855404 13.549584 -0.547855
2009-04-09 11:33:34 51°14.177 2°30.047 -999 1.855301 13.548485 -0.547855
2009-04-09 11:34:34 51°14.115 2°30.001 -999 1.85592 13.553133 -0.547855
2009-04-09 11:35:34 51°14.057 2°29.954 -999 1.855507 13.549571 -0.547855
2009-04-09 11:36:34 51°13.997 2°29.907 -999 1.855817 13.551478 -0.547855
2009-04-09 11:37:34 51°13.948 2°29.846 -999 1.855198 13.545719 -0.547855
2009-04-09 11:38:34 51°13.932 2°29.75 -999 1.85592 13.553133 -0.547855
2009-04-09 11:39:34 51°13.892 2°29.649 -999 1.857366 13.564906 -0.547855
2009-04-09 11:40:34 51°13.817 2°29.676 -999 1.856127 13.553941 -0.547855
2009-04-09 11:41:34 51°13.8 2°29.823 -999 1.856023 13.55173 -0.547855
2009-04-09 11:42:34 51°13.847 2°29.927 -999 1.855404 13.545971 -0.547855
2009-04-09 11:43:34 51°13.913 2°29.962 -999 1.855714 13.548156 -0.547855
2009-04-09 11:44:34 51°13.974 2°29.949 -999 1.854371 13.53582 -0.547855
2009-04-09 11:45:34 51°14.05 2°29.993 -999 1.854371 13.536931 -0.547855
2009-04-09 11:46:34 51°14.125 2°30.077 -999 1.855094 13.542398 -0.547855
2009-04-09 11:47:34 51°14.199 2°30.141 -999 1.854991 13.541022 -0.547855
2009-04-09 11:48:34 51°14.271 2°30.182 -999 1.854888 13.539924 -0.547855
2009-04-09 11:49:34 51°14.34 2°30.228 -999 1.854475 13.535808 -0.547855
2009-04-09 11:50:34 51°14.411 2°30.3 -999 1.855197 13.542108 -0.547855
2009-04-09 11:51:34 51°14.489 2°30.365 -999 1.854681 13.536617 -0.547855
2009-04-09 11:52:34 51°14.572 2°30.431 -999 1.854991 13.539912 -0.547855
2009-04-09 11:53:34 51°14.654 2°30.496 -999 1.854991 13.538801 -0.547855
2009-04-09 11:54:34 51°14.732 2°30.56 -999 1.854888 13.537426 -0.547855
2009-04-09 11:55:34 51°14.809 2°30.619 -999 1.854888 13.537148 -0.547855
2009-04-09 11:56:34 51°14.88 2°30.67 -999 1.854888 13.535484 -0.547855
2009-04-09 11:57:34 51°14.945 2°30.732 -999 1.855301 13.539043 -0.547855
2009-04-09 11:58:34 51°15.006 2°30.803 -999 1.85561 13.540671 -0.547855
2009-04-09 11:59:34 51°15.061 2°30.898 -999 1.85561 13.539839 -0.547855
2009-04-09 12:00:34 51°15.104 2°31.02 -999 1.85561 13.539007 -0.58268
2009-04-09 12:01:34 51°15.142 2°31.152 -999 1.856746 13.548308 -0.58268
2009-04-09 12:02:34 51°15.208 2°31.245 -999 1.857779 13.55679 -0.547855
2009-04-09 12:03:34 51°15.267 2°31.242 -999 1.857675 13.55347 -0.547855
2009-04-09 12:04:34 51°15.274 2°31.201 -999 1.857675 13.553192 -0.58268
2009-04-09 12:05:34 51°15.225 2°31.161 -999 1.85592 13.536752 -0.58268
2009-04-09 12:06:34 51°15.171 2°31.094 -999 1.857056 13.546328 -0.58268
2009-04-09 12:07:34 51°15.112 2°31.019 -999 1.857572 13.550706 -0.58268
2009-04-09 12:08:34 51°15.05 2°30.946 -999 1.857365 13.547401 -0.58268
2009-04-09 12:09:34 51°14.994 2°30.863 -999 1.857159 13.545761 -0.58268
2009-04-09 12:10:34 51°14.933 2°30.787 -999 1.857572 13.548763 -0.58268
2009-04-09 12:11:34 51°14.861 2°30.734 -999 1.859121 13.560787 -0.58268
2009-04-09 12:12:34 51°14.799 2°30.689 -999 1.857675 13.548473 -0.58268
2009-04-09 12:13:34 51°14.752 2°30.653 -999 1.858708 13.556118 -0.58268
2009-04-09 12:14:34 51°14.712 2°30.617 -999 1.857778 13.548184 -0.58268
2009-04-09 12:15:34 51°14.667 2°30.585 -999 1.858398 13.553658 -0.58268
2009-04-09 12:16:34 51°14.615 2°30.546 -999 1.858398 13.552826 -0.58268
2009-04-09 12:17:34 51°14.56 2°30.5 -999 1.858191 13.550631 -0.58268
2009-04-09 12:18:34 51°14.507 2°30.448 -999 1.858501 13.553091 -0.58268
2009-04-09 12:19:34 51°14.449 2°30.393 -999 1.858501 13.552813 -0.58268
2009-04-09 12:20:34 51°14.386 2°30.341 -999 1.858398 13.550606 -0.58268
2009-04-09 12:21:34 51°14.322 2°30.291 -999 1.858295 13.549786 -0.58268
2009-04-09 12:22:34 51°14.261 2°30.236 -999 1.858604 13.552801 -0.58268
2009-04-09 12:23:34 51°14.199 2°30.186 -999 1.858604 13.551968 -0.58268
2009-04-09 12:24:34 51°14.135 2°30.142 -999 1.858811 13.553053 -0.58268
2009-04-09 12:25:34 51°14.072 2°30.096 -999 1.858914 13.553873 -0.58268
2009-04-09 12:26:34 51°14.009 2°30.049 -999 1.859017 13.554138 -0.58268
2009-04-09 12:27:34 51°13.949 2°29.998 -999 1.858295 13.54729 -0.58268
2009-04-09 12:28:34 51°13.929 2°29.908 -999 1.859017 13.553028 -0.58268
2009-04-09 12:29:34 51°13.946 2°29.802 -999 1.858914 13.552763 -0.58268
2009-04-09 12:30:34 51°13.99 2°29.702 -999 1.858708 13.550846 -0.58268
2009-04-09 12:31:34 51°14.075 2°29.64 -999 1.858398 13.546724 -0.58268
2009-04-09 12:32:34 51°14.182 2°29.633 -999 1.861495 13.574647 -0.58268
2009-04-09 12:33:34 51°14.218 2°29.578 -999 1.860669 13.567254 -0.58268
2009-04-09 12:34:34 51°14.184 2°29.591 -999 1.860256 13.561477 -0.58268
2009-04-09 12:35:34 51°14.168 2°29.728 -999 1.859327 13.553545 -0.58268
2009-04-09 12:36:34 51°14.217 2°29.901 -999 1.858294 13.543964 -0.58268
2009-04-09 12:37:34 51°14.294 2°30.019 -999 1.858088 13.541494 -0.58268
2009-04-09 12:38:34 51°14.366 2°30.114 -999 1.858604 13.545868 -0.58268
2009-04-09 12:39:34 51°14.432 2°30.186 -999 1.858294 13.543132 -0.58268
2009-04-09 12:40:34 51°14.493 2°30.231 -999 1.858294 13.54341 -0.58268
2009-04-09 12:41:34 51°14.566 2°30.284 -999 1.858191 13.542036 -0.58268
2009-04-09 12:42:34 51°14.64 2°30.384 -999 1.857572 13.536012 -0.58268
2009-04-09 12:43:34 51°14.714 2°30.477 -999 1.859946 13.55763 -0.58268
2009-04-09 12:44:34 51°14.778 2°30.469 -999 1.860566 13.561715 -0.58268
2009-04-09 12:45:34 51°14.785 2°30.433 -999 1.860669 13.561425 -0.58268
2009-04-09 12:46:34 51°14.736 2°30.416 -999 1.859224 13.547735 -0.617504
2009-04-09 12:47:34 51°14.67 2°30.361 -999 1.858914 13.545001 -0.58268
2009-04-09 12:48:34 51°14.6 2°30.307 -999 1.858811 13.543073 -0.58268
2009-04-09 12:49:34 51°14.543 2°30.251 -999 1.858811 13.54335 -0.58268
2009-04-09 12:50:34 51°14.492 2°30.21 -999 1.858088 13.537339 -0.58268
2009-04-09 12:51:34 51°14.445 2°30.168 -999 1.858604 13.541158 -0.58268
2009-04-09 12:52:34 51°14.399 2°30.13 -999 1.858398 13.538689 -0.58268
2009-04-09 12:53:34 51°14.357 2°30.088 -999 1.85912 13.5447 -0.58268
2009-04-09 12:54:34 51°14.321 2°30.061 -999 1.859327 13.546338 -0.58268
2009-04-09 12:55:34 51°14.301 2°30.063 -999 1.85912 13.543869 -0.58268
2009-04-09 12:56:34 51°14.297 2°30.089 -999 1.85912 13.543038 -0.58268
2009-04-09 12:57:34 51°14.301 2°30.123 -999 1.859843 13.548771 -0.617504
2009-04-09 12:58:34 51°14.304 2°30.156 -999 1.861082 13.560264 -0.58268
2009-04-09 12:59:34 51°14.283 2°30.244 -999 1.860979 13.559999 -0.617504
2009-04-09 13:00:34 51°14.327 2°30.373 -999 1.85974 13.546013 -0.617504
2009-04-09 13:01:34 51°14.398 2°30.397 -999 1.85974 13.546567 -0.58268
2009-04-09 13:02:34 51°14.441 2°30.338 -999 1.858088 13.531528 -0.617504
2009-04-09 13:03:34 51°14.496 2°30.29 -999 1.856229 13.515685 -0.617504
2009-04-09 13:04:34 51°14.564 2°30.342 -999 1.859946 13.54682 -0.617504
2009-04-09 13:05:34 51°14.593 2°30.391 -999 1.85912 13.539439 -0.617504
2009-04-09 13:06:34 51°14.617 2°30.43 -999 1.85943 13.541895 -0.58268
2009-04-09 13:07:34 51°14.642 2°30.467 -999 1.860256 13.548723 -0.58268
2009-04-09 13:08:34 51°14.669 2°30.504 -999 1.859637 13.542979 -0.617504
2009-04-09 13:09:34 51°14.697 2°30.542 -999 1.859636 13.541872 -0.617504
2009-04-09 13:10:34 51°14.725 2°30.58 -999 1.860979 13.55307 -0.617504
2009-04-09 13:11:34 51°14.752 2°30.617 -999 1.860875 13.551697 -0.58268
2009-04-09 13:12:34 51°14.779 2°30.657 -999 1.860772 13.549494 -0.617504
2009-04-09 13:13:34 51°14.809 2°30.737 -999 1.860566 13.547026 -0.617504
2009-04-09 13:14:34 51°14.826 2°30.887 -999 1.862631 13.563123 -0.617504
2009-04-09 13:15:35 51°14.852 2°31.103 -999 1.861082 13.549181 -0.617504
2009-04-09 13:16:34 51°14.859 2°31.339 -999 1.861185 13.549446 -0.617504
2009-04-09 13:17:34 51°14.871 2°31.616 -999 1.860049 13.538507 -0.617504
2009-04-09 13:18:34 51°14.892 2°31.926 -999 1.861495 13.549687 -0.617504
2009-04-09 13:19:34 51°14.91 2°32.24 -999 1.861185 13.546402 -0.617504
2009-04-09 13:20:34 51°14.934 2°32.578 -999 1.860153 13.534902 -0.617504
2009-04-09 13:21:34 51°14.958 2°32.921 -999 1.85912 13.526721 -0.617504
2009-04-09 13:22:34 51°14.961 2°33.262 -999 1.859636 13.529982 -0.617504
2009-04-09 13:23:34 51°14.922 2°33.597 -999 1.860359 13.53488 -0.617504
2009-04-09 13:24:34 51°14.871 2°33.927 -999 1.859636 13.528878 -0.617504
2009-04-09 13:25:34 51°14.821 2°34.259 -999 1.85943 13.526413 -0.617504
2009-04-09 13:26:34 51°14.773 2°34.591 -999 1.85943 13.526137 -0.617504
2009-04-09 13:27:34 51°14.728 2°34.924 -999 1.859739 13.527762 -0.617504
2009-04-09 13:28:34 51°14.696 2°35.264 -999 1.859946 13.527465 -0.617504
2009-04-09 13:29:34 51°14.666 2°35.607 -999 1.85943 13.523101 -0.617504
2009-04-09 13:30:34 51°14.658 2°35.964 -999 1.859946 13.525257 -0.652328
2009-04-09 13:31:34 51°14.651 2°36.321 -999 1.860049 13.525523 -0.617504
2009-04-09 13:32:34 51°14.639 2°36.668 -999 1.860462 13.529345 -0.617504
2009-04-09 13:33:34 51°14.631 2°37.011 -999 1.860669 13.52822 -0.617504
2009-04-09 13:34:34 51°14.619 2°37.356 -999 1.860772 13.529038 -0.617504
2009-04-09 13:35:34 51°14.599 2°37.701 -999 1.861082 13.530662 -0.617504
2009-04-09 13:36:34 51°14.582 2°38.046 -999 1.861391 13.532286 -0.617504
2009-04-09 13:37:34 51°14.569 2°38.392 -999 1.861185 13.529272 -0.617504
2009-04-09 13:38:34 51°14.557 2°38.739 -999 1.862321 13.538539 -0.617504
2009-04-09 13:39:34 51°14.549 2°39.086 -999 1.861804 13.533072 -0.652328
2009-04-09 13:40:34 51°14.54 2°39.431 -999 1.861598 13.529782 -0.652328
2009-04-09 13:41:34 51°14.521 2°39.773 -999 1.86263 13.538506 -0.652328
2009-04-09 13:42:34 51°14.503 2°40.11 -999 1.862733 13.539323 -0.617504
2009-04-09 13:43:34 51°14.511 2°40.449 -999 1.86232 13.534123 -0.617504
2009-04-09 13:44:34 51°14.528 2°40.789 -999 1.86232 13.533019 -0.652328
2009-04-09 13:45:34 51°14.543 2°41.128 -999 1.862837 13.536001 -0.652328
2009-04-09 13:46:35 51°14.551 2°41.475 -999 1.863663 13.542537 -0.617504
2009-04-09 13:47:34 51°14.555 2°41.81 -999 1.863043 13.535704 -0.652328
2009-04-09 13:48:34 51°14.558 2°42.153 -999 1.864076 13.543321 -0.652328
2009-04-09 13:49:35 51°14.564 2°42.502 -999 1.863043 13.534049 -0.652328
2009-04-09 13:50:34 51°14.57 2°42.845 -999 1.86325 13.534579 -0.652328
2009-04-09 13:51:34 51°14.578 2°43.188 -999 1.862733 13.529669 -0.652328
2009-04-09 13:52:34 51°14.579 2°43.532 -999 1.863972 13.539469 -0.652328
2009-04-09 13:53:34 51°14.585 2°43.876 -999 1.863456 13.53318 -0.652328
2009-04-09 13:54:34 51°14.592 2°44.22 -999 1.863766 13.535354 -0.652328
2009-04-09 13:55:34 51°14.607 2°44.562 -999 1.864385 13.53915 -0.652328
2009-04-09 13:56:34 51°14.619 2°44.904 -999 1.864488 13.539415 -0.652328
2009-04-09 13:57:34 51°14.631 2°45.242 -999 1.864179 13.535037 -0.652328
2009-04-09 13:58:34 51°14.643 2°45.576 -999 1.865005 13.541292 -0.652328
2009-04-09 13:59:34 51°14.661 2°45.908 -999 1.865005 13.540741 -0.652328
2009-04-09 14:00:34 51°14.68 2°46.242 -999 1.865211 13.540995 -0.652328
2009-04-09 14:01:34 51°14.702 2°46.578 -999 1.865108 13.539352 -0.652328
2009-04-09 14:02:34 51°14.717 2°46.914 -999 1.865211 13.539066 -0.652328
2009-04-09 14:03:34 51°14.724 2°47.251 -999 1.865314 13.539055 -0.652328
2009-04-09 14:04:34 51°14.736 2°47.589 -999 1.865211 13.536861 -0.652328
2009-04-09 14:05:34 51°14.748 2°47.928 -999 1.866244 13.544471 -0.652328
2009-04-09 14:06:34 51°14.754 2°48.265 -999 1.865624 13.538748 -0.652328
2009-04-09 14:07:34 51°14.762 2°48.603 -999 1.866553 13.54499 -0.652328
2009-04-09 14:08:34 51°14.774 2°48.94 -999 1.866243 13.541715 -0.652328
2009-04-09 14:09:34 51°14.792 2°49.274 -999 1.86614 13.540073 -0.652328
2009-04-09 14:10:34 51°14.807 2°49.61 -999 1.86614 13.539247 -0.652328
2009-04-09 14:11:34 51°14.82 2°49.947 -999 1.867069 13.546038 -0.652328
2009-04-09 14:12:34 51°14.831 2°50.283 -999 1.867069 13.545487 -0.652328
2009-04-09 14:13:34 51°14.84 2°50.618 -999 1.867586 13.548464 -0.652328
2009-04-09 14:14:34 51°14.848 2°50.95 -999 1.867379 13.546006 -0.652328
2009-04-09 14:15:35 51°14.856 2°51.287 -999 1.867069 13.542182 -0.652328
2009-04-09 14:16:34 51°14.871 2°51.612 -999 1.866966 13.540265 -0.652328
2009-04-09 14:17:34 51°14.881 2°51.942 -999 1.867586 13.544883 -0.652328
2009-04-09 14:18:34 51°14.886 2°52.274 -999 1.868412 13.550856 -0.652328
2009-04-09 14:19:34 51°14.891 2°52.604 -999 1.867586 13.543781 -0.652328
2009-04-09 14:20:34 51°14.872 2°52.906 -999 1.869547 13.560102 -0.652328
2009-04-09 14:21:34 51°14.822 2°53.19 -999 1.86996 13.562262 -0.652328
2009-04-09 14:22:34 51°14.766 2°53.466 -999 1.871406 13.574508 -0.687152
2009-04-09 14:23:34 51°14.712 2°53.778 -999 1.868308 13.545359 -0.652328
2009-04-09 14:24:34 51°14.646 2°54.091 -999 1.868928 13.549975 -0.652328
2009-04-09 14:25:34 51°14.57 2°54.396 -999 1.868721 13.547794 -0.652328
2009-04-09 14:26:34 51°14.485 2°54.692 -999 1.86965 13.554305 -0.652328
2009-04-09 14:27:34 51°14.387 2°54.971 -999 1.869341 13.551309 -0.687152
2009-04-09 14:28:34 51°14.283 2°55.215 -999 1.869754 13.553468 -0.687152
2009-04-09 14:29:34 51°14.165 2°55.38 -999 1.870063 13.555638 -0.652328
2009-04-09 14:30:34 51°14.027 2°55.485 -999 1.870786 13.560517 -0.687152
2009-04-09 14:31:34 51°13.9 2°55.573 -999 1.871509 13.565672 -0.652328
2009-04-09 14:32:34 51°13.797 2°55.661 -999 1.872851 13.575717 -0.687152
2009-04-09 14:33:34 51°13.718 2°55.791 -999 1.872438 13.569425 -0.652328
2009-04-09 14:34:34 51°13.676 2°55.888 -999 1.873574 13.577562 -0.652328
2009-04-09 14:35:34 51°13.664 2°55.953 -999 1.873884 13.57725 -0.687152